sensor_id;sensor_type;location;lat;lon;timestamp;P1;durP1;ratioP1;P2;durP2;ratioP2
26407;SDS011;14583;43.604;1.364;2023-04-09T00:03:28;11.27;;;7.10;;
26407;SDS011;14583;43.604;1.364;2023-04-09T00:05:54;15.30;;;6.90;;
26407;SDS011;14583;43.604;1.364;2023-04-09T00:08:20;13.57;;;6.75;;
26407;SDS011;14583;43.604;1.364;2023-04-09T00:10:47;14.98;;;7.18;;
26407;SDS011;14583;43.604;1.364;2023-04-09T00:13:14;9.68;;;6.63;;
26407;SDS011;14583;43.604;1.364;2023-04-09T00:15:40;10.63;;;6.68;;
26407;SDS011;14583;43.604;1.364;2023-04-09T00:18:05;10.85;;;6.72;;
26407;SDS011;14583;43.604;1.364;2023-04-09T00:20:31;10.07;;;6.45;;
26407;SDS011;14583;43.604;1.364;2023-04-09T00:22:57;9.48;;;6.70;;
26407;SDS011;14583;43.604;1.364;2023-04-09T00:25:22;12.05;;;6.15;;
26407;SDS011;14583;43.604;1.364;2023-04-09T00:27:48;11.32;;;6.82;;
26407;SDS011;14583;43.604;1.364;2023-04-09T00:30:14;12.98;;;6.80;;
26407;SDS011;14583;43.604;1.364;2023-04-09T00:32:40;15.05;;;7.45;;
26407;SDS011;14583;43.604;1.364;2023-04-09T00:35:06;12.90;;;7.57;;
26407;SDS011;14583;43.604;1.364;2023-04-09T00:37:32;10.23;;;7.70;;
26407;SDS011;14583;43.604;1.364;2023-04-09T00:39:58;13.77;;;8.18;;
26407;SDS011;14583;43.604;1.364;2023-04-09T00:42:23;17.17;;;8.68;;
26407;SDS011;14583;43.604;1.364;2023-04-09T00:44:49;13.80;;;7.47;;
26407;SDS011;14583;43.604;1.364;2023-04-09T00:47:15;13.60;;;6.32;;
26407;SDS011;14583;43.604;1.364;2023-04-09T00:49:41;10.35;;;6.50;;
26407;SDS011;14583;43.604;1.364;2023-04-09T00:52:08;10.30;;;5.70;;
26407;SDS011;14583;43.604;1.364;2023-04-09T00:54:34;10.55;;;5.75;;
26407;SDS011;14583;43.604;1.364;2023-04-09T00:57:00;8.32;;;5.05;;
26407;SDS011;14583;43.604;1.364;2023-04-09T00:59:26;6.20;;;4.88;;
26407;SDS011;14583;43.604;1.364;2023-04-09T01:01:53;8.85;;;4.85;;
26407;SDS011;14583;43.604;1.364;2023-04-09T01:04:18;8.93;;;5.10;;
26407;SDS011;14583;43.604;1.364;2023-04-09T01:06:50;9.80;;;4.93;;
26407;SDS011;14583;43.604;1.364;2023-04-09T01:09:23;6.80;;;4.40;;
26407;SDS011;14583;43.604;1.364;2023-04-09T01:12:13;7.10;;;4.38;;
26407;SDS011;14583;43.604;1.364;2023-04-09T01:17:14;9.90;;;4.85;;
26407;SDS011;14583;43.604;1.364;2023-04-09T01:20:08;10.82;;;4.25;;
26407;SDS011;14583;43.604;1.364;2023-04-09T01:30:48;6.13;;;4.18;;
26407;SDS011;14583;43.604;1.364;2023-04-09T01:33:16;10.93;;;4.40;;
26407;SDS011;14583;43.604;1.364;2023-04-09T01:35:47;9.70;;;4.53;;
26407;SDS011;14583;43.604;1.364;2023-04-09T01:38:15;6.43;;;4.28;;
26407;SDS011;14583;43.604;1.364;2023-04-09T01:40:43;6.47;;;4.00;;
26407;SDS011;14583;43.604;1.364;2023-04-09T01:43:10;7.25;;;3.50;;
26407;SDS011;14583;43.604;1.364;2023-04-09T01:45:36;5.97;;;3.55;;
26407;SDS011;14583;43.604;1.364;2023-04-09T01:48:02;8.05;;;4.10;;
26407;SDS011;14583;43.604;1.364;2023-04-09T01:50:29;9.65;;;4.03;;
26407;SDS011;14583;43.604;1.364;2023-04-09T01:52:56;4.93;;;3.50;;
26407;SDS011;14583;43.604;1.364;2023-04-09T01:55:22;5.57;;;3.35;;
26407;SDS011;14583;43.604;1.364;2023-04-09T01:57:48;6.10;;;3.67;;
26407;SDS011;14583;43.604;1.364;2023-04-09T02:00:13;6.57;;;4.00;;
26407;SDS011;14583;43.604;1.364;2023-04-09T02:02:41;9.10;;;3.90;;
26407;SDS011;14583;43.604;1.364;2023-04-09T02:05:45;4.88;;;3.50;;
26407;SDS011;14583;43.604;1.364;2023-04-09T02:08:21;6.47;;;4.00;;
26407;SDS011;14583;43.604;1.364;2023-04-09T02:10:50;7.18;;;3.53;;
26407;SDS011;14583;43.604;1.364;2023-04-09T02:13:19;7.53;;;3.55;;
26407;SDS011;14583;43.604;1.364;2023-04-09T02:15:46;6.10;;;4.13;;
26407;SDS011;14583;43.604;1.364;2023-04-09T02:18:46;6.00;;;4.00;;
26407;SDS011;14583;43.604;1.364;2023-04-09T02:21:05;6.13;;;3.17;;
26407;SDS011;14583;43.604;1.364;2023-04-09T02:23:31;6.82;;;3.50;;
26407;SDS011;14583;43.604;1.364;2023-04-09T02:25:57;7.28;;;3.60;;
26407;SDS011;14583;43.604;1.364;2023-04-09T02:28:23;8.07;;;3.20;;
26407;SDS011;14583;43.604;1.364;2023-04-09T02:30:49;9.63;;;3.50;;
26407;SDS011;14583;43.604;1.364;2023-04-09T02:33:15;9.05;;;3.30;;
26407;SDS011;14583;43.604;1.364;2023-04-09T02:35:40;10.25;;;3.95;;
26407;SDS011;14583;43.604;1.364;2023-04-09T02:38:06;7.55;;;3.45;;
26407;SDS011;14583;43.604;1.364;2023-04-09T02:40:37;5.35;;;3.10;;
26407;SDS011;14583;43.604;1.364;2023-04-09T02:43:07;4.30;;;3.00;;
26407;SDS011;14583;43.604;1.364;2023-04-09T02:45:33;8.68;;;3.20;;
26407;SDS011;14583;43.604;1.364;2023-04-09T02:47:59;7.15;;;2.72;;
26407;SDS011;14583;43.604;1.364;2023-04-09T02:50:25;5.47;;;2.80;;
26407;SDS011;14583;43.604;1.364;2023-04-09T02:52:50;7.13;;;3.08;;
26407;SDS011;14583;43.604;1.364;2023-04-09T02:55:17;5.75;;;3.65;;
26407;SDS011;14583;43.604;1.364;2023-04-09T02:57:43;5.63;;;3.05;;
26407;SDS011;14583;43.604;1.364;2023-04-09T03:00:08;6.10;;;3.00;;
26407;SDS011;14583;43.604;1.364;2023-04-09T03:02:35;7.15;;;3.60;;
26407;SDS011;14583;43.604;1.364;2023-04-09T03:05:01;5.63;;;3.13;;
26407;SDS011;14583;43.604;1.364;2023-04-09T03:07:26;6.25;;;2.92;;
26407;SDS011;14583;43.604;1.364;2023-04-09T03:09:52;7.72;;;3.20;;
26407;SDS011;14583;43.604;1.364;2023-04-09T03:12:18;5.50;;;2.83;;
26407;SDS011;14583;43.604;1.364;2023-04-09T03:14:43;5.05;;;2.88;;
26407;SDS011;14583;43.604;1.364;2023-04-09T03:17:09;4.88;;;3.00;;
26407;SDS011;14583;43.604;1.364;2023-04-09T03:19:35;4.40;;;2.83;;
26407;SDS011;14583;43.604;1.364;2023-04-09T03:22:00;4.07;;;2.70;;
26407;SDS011;14583;43.604;1.364;2023-04-09T03:24:26;5.47;;;2.92;;
26407;SDS011;14583;43.604;1.364;2023-04-09T03:26:52;6.63;;;2.90;;
26407;SDS011;14583;43.604;1.364;2023-04-09T03:29:17;5.97;;;3.25;;
26407;SDS011;14583;43.604;1.364;2023-04-09T03:31:43;5.72;;;2.88;;
26407;SDS011;14583;43.604;1.364;2023-04-09T03:34:09;4.93;;;3.05;;
26407;SDS011;14583;43.604;1.364;2023-04-09T03:36:34;5.38;;;2.50;;
26407;SDS011;14583;43.604;1.364;2023-04-09T03:39:00;3.80;;;2.92;;
26407;SDS011;14583;43.604;1.364;2023-04-09T03:41:26;6.22;;;2.92;;
26407;SDS011;14583;43.604;1.364;2023-04-09T03:43:52;4.60;;;3.05;;
26407;SDS011;14583;43.604;1.364;2023-04-09T03:46:17;6.90;;;3.45;;
26407;SDS011;14583;43.604;1.364;2023-04-09T03:48:43;5.65;;;3.50;;
26407;SDS011;14583;43.604;1.364;2023-04-09T03:51:13;6.25;;;2.95;;
26407;SDS011;14583;43.604;1.364;2023-04-09T03:53:39;6.25;;;3.30;;
26407;SDS011;14583;43.604;1.364;2023-04-09T03:56:06;5.72;;;3.08;;
26407;SDS011;14583;43.604;1.364;2023-04-09T03:58:32;4.90;;;2.92;;
26407;SDS011;14583;43.604;1.364;2023-04-09T04:00:58;3.50;;;2.75;;
26407;SDS011;14583;43.604;1.364;2023-04-09T04:03:24;6.75;;;2.95;;
26407;SDS011;14583;43.604;1.364;2023-04-09T04:05:50;4.13;;;3.13;;
26407;SDS011;14583;43.604;1.364;2023-04-09T04:08:15;4.28;;;2.80;;
26407;SDS011;14583;43.604;1.364;2023-04-09T04:10:41;3.70;;;2.70;;
26407;SDS011;14583;43.604;1.364;2023-04-09T04:13:07;4.93;;;3.10;;
26407;SDS011;14583;43.604;1.364;2023-04-09T04:15:32;3.85;;;3.03;;
26407;SDS011;14583;43.604;1.364;2023-04-09T04:18:03;5.63;;;3.03;;
26407;SDS011;14583;43.604;1.364;2023-04-09T04:20:28;5.05;;;2.90;;
26407;SDS011;14583;43.604;1.364;2023-04-09T04:22:57;5.95;;;3.00;;
26407;SDS011;14583;43.604;1.364;2023-04-09T04:25:22;6.68;;;3.67;;
26407;SDS011;14583;43.604;1.364;2023-04-09T04:27:48;5.43;;;3.05;;
26407;SDS011;14583;43.604;1.364;2023-04-09T04:30:14;3.78;;;2.63;;
26407;SDS011;14583;43.604;1.364;2023-04-09T04:32:39;4.38;;;3.00;;
26407;SDS011;14583;43.604;1.364;2023-04-09T04:35:05;4.30;;;2.72;;
26407;SDS011;14583;43.604;1.364;2023-04-09T04:37:31;5.20;;;3.20;;
26407;SDS011;14583;43.604;1.364;2023-04-09T04:39:57;4.82;;;3.13;;
26407;SDS011;14583;43.604;1.364;2023-04-09T04:42:25;10.93;;;3.30;;
26407;SDS011;14583;43.604;1.364;2023-04-09T04:44:51;5.40;;;2.72;;
26407;SDS011;14583;43.604;1.364;2023-04-09T04:47:17;5.07;;;3.05;;
26407;SDS011;14583;43.604;1.364;2023-04-09T04:49:43;4.75;;;3.08;;
26407;SDS011;14583;43.604;1.364;2023-04-09T04:52:09;3.75;;;2.60;;
26407;SDS011;14583;43.604;1.364;2023-04-09T04:54:35;5.70;;;2.90;;
26407;SDS011;14583;43.604;1.364;2023-04-09T04:57:00;5.00;;;2.60;;
26407;SDS011;14583;43.604;1.364;2023-04-09T04:59:26;8.65;;;3.17;;
26407;SDS011;14583;43.604;1.364;2023-04-09T05:01:52;5.90;;;2.70;;
26407;SDS011;14583;43.604;1.364;2023-04-09T05:04:18;4.75;;;3.00;;
26407;SDS011;14583;43.604;1.364;2023-04-09T05:06:43;3.35;;;2.60;;
26407;SDS011;14583;43.604;1.364;2023-04-09T05:09:09;7.55;;;2.78;;
26407;SDS011;14583;43.604;1.364;2023-04-09T05:11:35;2.83;;;2.53;;
26407;SDS011;14583;43.604;1.364;2023-04-09T05:14:00;6.53;;;2.95;;
26407;SDS011;14583;43.604;1.364;2023-04-09T05:16:26;5.22;;;2.58;;
26407;SDS011;14583;43.604;1.364;2023-04-09T05:18:52;4.55;;;2.55;;
26407;SDS011;14583;43.604;1.364;2023-04-09T05:21:17;5.45;;;3.05;;
26407;SDS011;14583;43.604;1.364;2023-04-09T05:23:43;5.45;;;2.67;;
26407;SDS011;14583;43.604;1.364;2023-04-09T05:26:08;7.15;;;3.00;;
26407;SDS011;14583;43.604;1.364;2023-04-09T05:28:34;2.92;;;2.47;;
26407;SDS011;14583;43.604;1.364;2023-04-09T05:31:00;3.95;;;2.90;;
26407;SDS011;14583;43.604;1.364;2023-04-09T05:33:26;3.92;;;2.60;;
26407;SDS011;14583;43.604;1.364;2023-04-09T05:35:51;4.85;;;2.80;;
26407;SDS011;14583;43.604;1.364;2023-04-09T05:38:17;6.55;;;2.90;;
26407;SDS011;14583;43.604;1.364;2023-04-09T05:40:42;4.43;;;2.78;;
26407;SDS011;14583;43.604;1.364;2023-04-09T05:43:09;5.47;;;2.78;;
26407;SDS011;14583;43.604;1.364;2023-04-09T05:45:35;3.90;;;2.80;;
26407;SDS011;14583;43.604;1.364;2023-04-09T05:48:01;9.73;;;3.38;;
26407;SDS011;14583;43.604;1.364;2023-04-09T05:50:27;5.07;;;3.20;;
26407;SDS011;14583;43.604;1.364;2023-04-09T05:52:53;3.95;;;3.00;;
26407;SDS011;14583;43.604;1.364;2023-04-09T05:55:18;4.82;;;3.10;;
26407;SDS011;14583;43.604;1.364;2023-04-09T05:57:44;4.68;;;2.88;;
26407;SDS011;14583;43.604;1.364;2023-04-09T06:00:10;6.80;;;2.80;;
26407;SDS011;14583;43.604;1.364;2023-04-09T06:02:36;6.00;;;3.17;;
26407;SDS011;14583;43.604;1.364;2023-04-09T06:05:01;5.30;;;2.90;;
26407;SDS011;14583;43.604;1.364;2023-04-09T06:07:27;4.20;;;2.60;;
26407;SDS011;14583;43.604;1.364;2023-04-09T06:09:56;4.70;;;2.40;;
26407;SDS011;14583;43.604;1.364;2023-04-09T06:12:22;5.43;;;2.40;;
26407;SDS011;14583;43.604;1.364;2023-04-09T06:14:47;5.32;;;2.40;;
26407;SDS011;14583;43.604;1.364;2023-04-09T06:17:13;3.03;;;2.28;;
26407;SDS011;14583;43.604;1.364;2023-04-09T06:19:39;6.22;;;2.97;;
26407;SDS011;14583;43.604;1.364;2023-04-09T06:22:05;6.35;;;2.47;;
26407;SDS011;14583;43.604;1.364;2023-04-09T06:24:33;3.30;;;2.75;;
26407;SDS011;14583;43.604;1.364;2023-04-09T06:26:58;6.72;;;2.80;;
26407;SDS011;14583;43.604;1.364;2023-04-09T06:29:24;6.55;;;2.65;;
26407;SDS011;14583;43.604;1.364;2023-04-09T06:31:50;3.88;;;2.55;;
26407;SDS011;14583;43.604;1.364;2023-04-09T06:34:15;3.97;;;2.80;;
26407;SDS011;14583;43.604;1.364;2023-04-09T06:36:41;8.02;;;2.80;;
26407;SDS011;14583;43.604;1.364;2023-04-09T06:39:07;3.90;;;2.67;;
26407;SDS011;14583;43.604;1.364;2023-04-09T06:41:33;3.80;;;2.40;;
26407;SDS011;14583;43.604;1.364;2023-04-09T06:43:59;4.53;;;2.38;;
26407;SDS011;14583;43.604;1.364;2023-04-09T06:46:25;5.85;;;2.63;;
26407;SDS011;14583;43.604;1.364;2023-04-09T06:48:52;2.70;;;2.17;;
26407;SDS011;14583;43.604;1.364;2023-04-09T06:51:17;3.47;;;2.33;;
26407;SDS011;14583;43.604;1.364;2023-04-09T06:53:43;6.00;;;2.80;;
26407;SDS011;14583;43.604;1.364;2023-04-09T06:56:09;4.30;;;2.70;;
26407;SDS011;14583;43.604;1.364;2023-04-09T06:58:35;3.88;;;2.50;;
26407;SDS011;14583;43.604;1.364;2023-04-09T07:01:01;6.55;;;2.40;;
26407;SDS011;14583;43.604;1.364;2023-04-09T07:03:27;4.97;;;2.70;;
26407;SDS011;14583;43.604;1.364;2023-04-09T07:05:53;4.43;;;2.38;;
26407;SDS011;14583;43.604;1.364;2023-04-09T07:08:20;6.47;;;2.63;;
26407;SDS011;14583;43.604;1.364;2023-04-09T07:10:47;3.08;;;2.17;;
26407;SDS011;14583;43.604;1.364;2023-04-09T07:13:13;3.65;;;2.03;;
26407;SDS011;14583;43.604;1.364;2023-04-09T07:15:39;5.07;;;2.38;;
26407;SDS011;14583;43.604;1.364;2023-04-09T07:18:04;3.15;;;2.15;;
26407;SDS011;14583;43.604;1.364;2023-04-09T07:20:30;3.97;;;2.40;;
26407;SDS011;14583;43.604;1.364;2023-04-09T07:22:56;6.00;;;2.10;;
26407;SDS011;14583;43.604;1.364;2023-04-09T07:25:21;3.33;;;2.20;;
26407;SDS011;14583;43.604;1.364;2023-04-09T07:27:47;6.78;;;2.80;;
26407;SDS011;14583;43.604;1.364;2023-04-09T07:30:13;5.55;;;2.60;;
26407;SDS011;14583;43.604;1.364;2023-04-09T07:32:39;3.72;;;2.30;;
26407;SDS011;14583;43.604;1.364;2023-04-09T07:35:05;4.25;;;2.35;;
26407;SDS011;14583;43.604;1.364;2023-04-09T07:37:31;6.90;;;2.40;;
26407;SDS011;14583;43.604;1.364;2023-04-09T07:39:57;6.05;;;2.50;;
26407;SDS011;14583;43.604;1.364;2023-04-09T07:42:23;3.33;;;2.17;;
26407;SDS011;14583;43.604;1.364;2023-04-09T07:44:49;3.58;;;2.30;;
26407;SDS011;14583;43.604;1.364;2023-04-09T07:47:15;5.32;;;2.00;;
26407;SDS011;14583;43.604;1.364;2023-04-09T07:49:41;4.00;;;2.33;;
26407;SDS011;14583;43.604;1.364;2023-04-09T07:52:06;3.95;;;2.22;;
26407;SDS011;14583;43.604;1.364;2023-04-09T07:54:32;3.60;;;2.42;;
26407;SDS011;14583;43.604;1.364;2023-04-09T07:56:59;3.40;;;2.35;;
26407;SDS011;14583;43.604;1.364;2023-04-09T07:59:25;3.15;;;2.13;;
26407;SDS011;14583;43.604;1.364;2023-04-09T08:01:51;2.83;;;2.17;;
26407;SDS011;14583;43.604;1.364;2023-04-09T08:04:17;3.00;;;2.25;;
26407;SDS011;14583;43.604;1.364;2023-04-09T08:06:43;4.45;;;2.50;;
26407;SDS011;14583;43.604;1.364;2023-04-09T08:09:14;6.65;;;2.25;;
26407;SDS011;14583;43.604;1.364;2023-04-09T08:11:42;4.03;;;2.38;;
26407;SDS011;14583;43.604;1.364;2023-04-09T08:14:10;3.22;;;1.92;;
26407;SDS011;14583;43.604;1.364;2023-04-09T08:16:38;4.30;;;2.22;;
26407;SDS011;14583;43.604;1.364;2023-04-09T08:19:07;4.80;;;2.42;;
26407;SDS011;14583;43.604;1.364;2023-04-09T08:21:37;3.45;;;2.30;;
26407;SDS011;14583;43.604;1.364;2023-04-09T08:24:07;3.50;;;1.98;;
26407;SDS011;14583;43.604;1.364;2023-04-09T08:26:33;2.75;;;1.90;;
26407;SDS011;14583;43.604;1.364;2023-04-09T08:28:58;2.67;;;1.83;;
26407;SDS011;14583;43.604;1.364;2023-04-09T08:31:24;3.20;;;1.90;;
26407;SDS011;14583;43.604;1.364;2023-04-09T08:33:51;8.00;;;3.33;;
26407;SDS011;14583;43.604;1.364;2023-04-09T08:36:17;5.43;;;2.47;;
26407;SDS011;14583;43.604;1.364;2023-04-09T08:38:43;5.93;;;2.40;;
26407;SDS011;14583;43.604;1.364;2023-04-09T08:41:16;3.20;;;2.00;;
26407;SDS011;14583;43.604;1.364;2023-04-09T08:43:42;6.38;;;1.95;;
26407;SDS011;14583;43.604;1.364;2023-04-09T08:46:11;4.10;;;2.17;;
26407;SDS011;14583;43.604;1.364;2023-04-09T08:48:39;2.72;;;1.80;;
26407;SDS011;14583;43.604;1.364;2023-04-09T08:51:06;2.78;;;1.92;;
26407;SDS011;14583;43.604;1.364;2023-04-09T08:53:32;5.38;;;2.30;;
26407;SDS011;14583;43.604;1.364;2023-04-09T08:56:00;2.75;;;2.03;;
26407;SDS011;14583;43.604;1.364;2023-04-09T08:58:25;2.72;;;2.10;;
26407;SDS011;14583;43.604;1.364;2023-04-09T09:00:51;2.53;;;1.80;;
26407;SDS011;14583;43.604;1.364;2023-04-09T09:03:17;3.50;;;1.92;;
26407;SDS011;14583;43.604;1.364;2023-04-09T09:05:43;4.82;;;2.00;;
26407;SDS011;14583;43.604;1.364;2023-04-09T09:08:11;3.00;;;2.03;;
26407;SDS011;14583;43.604;1.364;2023-04-09T09:10:42;1.95;;;1.70;;
26407;SDS011;14583;43.604;1.364;2023-04-09T09:13:18;4.50;;;1.95;;
26407;SDS011;14583;43.604;1.364;2023-04-09T09:15:45;3.75;;;1.92;;
26407;SDS011;14583;43.604;1.364;2023-04-09T09:18:13;4.32;;;1.83;;
26407;SDS011;14583;43.604;1.364;2023-04-09T09:20:39;3.83;;;1.70;;
26407;SDS011;14583;43.604;1.364;2023-04-09T09:23:05;5.07;;;1.95;;
26407;SDS011;14583;43.604;1.364;2023-04-09T09:25:36;7.80;;;2.50;;
26407;SDS011;14583;43.604;1.364;2023-04-09T09:28:09;3.53;;;1.95;;
26407;SDS011;14583;43.604;1.364;2023-04-09T09:30:37;4.18;;;1.70;;
26407;SDS011;14583;43.604;1.364;2023-04-09T09:33:08;4.20;;;2.10;;
26407;SDS011;14583;43.604;1.364;2023-04-09T09:35:50;3.63;;;1.95;;
26407;SDS011;14583;43.604;1.364;2023-04-09T09:38:18;4.03;;;2.10;;
26407;SDS011;14583;43.604;1.364;2023-04-09T09:40:45;4.63;;;2.00;;
26407;SDS011;14583;43.604;1.364;2023-04-09T09:43:11;4.20;;;1.92;;
26407;SDS011;14583;43.604;1.364;2023-04-09T09:45:38;5.50;;;1.60;;
26407;SDS011;14583;43.604;1.364;2023-04-09T09:48:05;2.67;;;1.70;;
26407;SDS011;14583;43.604;1.364;2023-04-09T09:50:35;3.03;;;1.55;;
26407;SDS011;14583;43.604;1.364;2023-04-09T09:53:04;5.30;;;1.30;;
26407;SDS011;14583;43.604;1.364;2023-04-09T09:55:31;3.05;;;1.60;;
26407;SDS011;14583;43.604;1.364;2023-04-09T09:58:01;3.03;;;1.83;;
26407;SDS011;14583;43.604;1.364;2023-04-09T10:00:32;1.95;;;1.40;;
26407;SDS011;14583;43.604;1.364;2023-04-09T10:03:05;4.43;;;1.48;;
26407;SDS011;14583;43.604;1.364;2023-04-09T10:05:37;2.95;;;1.35;;
26407;SDS011;14583;43.604;1.364;2023-04-09T10:08:04;3.55;;;1.38;;
26407;SDS011;14583;43.604;1.364;2023-04-09T10:10:31;6.38;;;3.75;;
26407;SDS011;14583;43.604;1.364;2023-04-09T10:12:57;4.18;;;1.88;;
26407;SDS011;14583;43.604;1.364;2023-04-09T10:15:23;4.10;;;1.50;;
26407;SDS011;14583;43.604;1.364;2023-04-09T10:17:50;2.75;;;1.67;;
26407;SDS011;14583;43.604;1.364;2023-04-09T10:20:22;4.03;;;2.33;;
26407;SDS011;14583;43.604;1.364;2023-04-09T10:22:51;3.92;;;1.95;;
26407;SDS011;14583;43.604;1.364;2023-04-09T10:25:17;4.68;;;2.03;;
26407;SDS011;14583;43.604;1.364;2023-04-09T10:27:44;4.65;;;2.05;;
26407;SDS011;14583;43.604;1.364;2023-04-09T10:30:32;4.07;;;1.55;;
26407;SDS011;14583;43.604;1.364;2023-04-09T10:35:54;2.83;;;1.20;;
26407;SDS011;14583;43.604;1.364;2023-04-09T10:41:11;5.88;;;1.70;;
26407;SDS011;14583;43.604;1.364;2023-04-09T10:43:38;5.53;;;1.50;;
26407;SDS011;14583;43.604;1.364;2023-04-09T10:46:06;3.53;;;1.30;;
26407;SDS011;14583;43.604;1.364;2023-04-09T10:48:48;4.00;;;1.40;;
26407;SDS011;14583;43.604;1.364;2023-04-09T10:51:33;2.33;;;1.58;;
26407;SDS011;14583;43.604;1.364;2023-04-09T10:54:06;6.75;;;1.77;;
26407;SDS011;14583;43.604;1.364;2023-04-09T10:59:47;2.78;;;1.60;;
26407;SDS011;14583;43.604;1.364;2023-04-09T11:05:05;5.45;;;3.67;;
26407;SDS011;14583;43.604;1.364;2023-04-09T11:07:35;1.95;;;1.33;;
26407;SDS011;14583;43.604;1.364;2023-04-09T11:10:05;3.58;;;1.40;;
26407;SDS011;14583;43.604;1.364;2023-04-09T11:12:32;3.55;;;1.40;;
26407;SDS011;14583;43.604;1.364;2023-04-09T11:14:57;3.85;;;1.52;;
26407;SDS011;14583;43.604;1.364;2023-04-09T11:17:23;3.08;;;1.40;;
26407;SDS011;14583;43.604;1.364;2023-04-09T11:19:49;5.43;;;1.50;;
26407;SDS011;14583;43.604;1.364;2023-04-09T11:22:15;2.92;;;1.40;;
26407;SDS011;14583;43.604;1.364;2023-04-09T11:24:41;3.40;;;1.60;;
26407;SDS011;14583;43.604;1.364;2023-04-09T11:27:07;3.28;;;1.73;;
26407;SDS011;14583;43.604;1.364;2023-04-09T11:29:33;2.40;;;1.70;;
26407;SDS011;14583;43.604;1.364;2023-04-09T11:32:00;1.65;;;1.33;;
26407;SDS011;14583;43.604;1.364;2023-04-09T11:34:32;2.90;;;1.30;;
26407;SDS011;14583;43.604;1.364;2023-04-09T11:36:58;2.33;;;1.38;;
26407;SDS011;14583;43.604;1.364;2023-04-09T11:39:26;1.58;;;1.25;;
26407;SDS011;14583;43.604;1.364;2023-04-09T11:41:51;5.97;;;1.30;;
26407;SDS011;14583;43.604;1.364;2023-04-09T11:44:19;1.67;;;1.45;;
26407;SDS011;14583;43.604;1.364;2023-04-09T11:46:44;2.88;;;1.52;;
26407;SDS011;14583;43.604;1.364;2023-04-09T11:49:12;4.07;;;2.63;;
26407;SDS011;14583;43.604;1.364;2023-04-09T11:51:38;5.43;;;2.33;;
26407;SDS011;14583;43.604;1.364;2023-04-09T11:54:04;5.38;;;2.90;;
26407;SDS011;14583;43.604;1.364;2023-04-09T11:56:31;3.03;;;1.60;;
26407;SDS011;14583;43.604;1.364;2023-04-09T11:58:57;9.60;;;3.53;;
26407;SDS011;14583;43.604;1.364;2023-04-09T12:01:23;5.28;;;1.90;;
26407;SDS011;14583;43.604;1.364;2023-04-09T12:03:54;6.57;;;2.03;;
26407;SDS011;14583;43.604;1.364;2023-04-09T12:06:20;3.78;;;1.60;;
26407;SDS011;14583;43.604;1.364;2023-04-09T12:08:52;5.20;;;1.70;;
26407;SDS011;14583;43.604;1.364;2023-04-09T12:11:26;4.95;;;2.30;;
26407;SDS011;14583;43.604;1.364;2023-04-09T12:14:00;5.28;;;2.00;;
26407;SDS011;14583;43.604;1.364;2023-04-09T12:16:33;4.55;;;2.30;;
26407;SDS011;14583;43.604;1.364;2023-04-09T12:19:09;4.85;;;2.35;;
26407;SDS011;14583;43.604;1.364;2023-04-09T12:21:54;2.88;;;2.10;;
26407;SDS011;14583;43.604;1.364;2023-04-09T12:24:23;36.03;;;7.43;;
26407;SDS011;14583;43.604;1.364;2023-04-09T12:26:50;3.38;;;1.60;;
26407;SDS011;14583;43.604;1.364;2023-04-09T12:29:17;3.95;;;1.80;;
26407;SDS011;14583;43.604;1.364;2023-04-09T12:31:44;2.78;;;1.50;;
26407;SDS011;14583;43.604;1.364;2023-04-09T12:34:11;6.18;;;2.22;;
26407;SDS011;14583;43.604;1.364;2023-04-09T12:36:37;2.17;;;1.40;;
26407;SDS011;14583;43.604;1.364;2023-04-09T12:39:05;4.05;;;1.42;;
26407;SDS011;14583;43.604;1.364;2023-04-09T12:41:31;2.40;;;1.50;;
26407;SDS011;14583;43.604;1.364;2023-04-09T12:43:56;2.55;;;1.40;;
26407;SDS011;14583;43.604;1.364;2023-04-09T12:46:22;4.53;;;3.08;;
26407;SDS011;14583;43.604;1.364;2023-04-09T12:48:48;2.40;;;1.48;;
26407;SDS011;14583;43.604;1.364;2023-04-09T12:51:13;1.90;;;1.35;;
26407;SDS011;14583;43.604;1.364;2023-04-09T12:53:39;5.70;;;2.50;;
26407;SDS011;14583;43.604;1.364;2023-04-09T12:56:05;2.90;;;1.80;;
26407;SDS011;14583;43.604;1.364;2023-04-09T12:58:31;4.28;;;1.77;;
26407;SDS011;14583;43.604;1.364;2023-04-09T13:00:57;2.45;;;1.50;;
26407;SDS011;14583;43.604;1.364;2023-04-09T13:03:23;3.70;;;1.92;;
26407;SDS011;14583;43.604;1.364;2023-04-09T13:05:49;3.60;;;1.92;;
26407;SDS011;14583;43.604;1.364;2023-04-09T13:08:15;2.60;;;1.77;;
26407;SDS011;14583;43.604;1.364;2023-04-09T13:10:41;4.60;;;1.33;;
26407;SDS011;14583;43.604;1.364;2023-04-09T13:13:07;2.83;;;1.73;;
26407;SDS011;14583;43.604;1.364;2023-04-09T13:15:36;2.28;;;1.60;;
26407;SDS011;14583;43.604;1.364;2023-04-09T13:18:07;2.83;;;1.80;;
26407;SDS011;14583;43.604;1.364;2023-04-09T13:20:33;2.05;;;1.75;;
26407;SDS011;14583;43.604;1.364;2023-04-09T13:22:59;2.35;;;1.30;;
26407;SDS011;14583;43.604;1.364;2023-04-09T13:25:26;12.10;;;4.35;;
26407;SDS011;14583;43.604;1.364;2023-04-09T13:27:51;2.88;;;2.00;;
26407;SDS011;14583;43.604;1.364;2023-04-09T13:30:17;4.47;;;1.50;;
26407;SDS011;14583;43.604;1.364;2023-04-09T13:32:42;2.75;;;1.63;;
26407;SDS011;14583;43.604;1.364;2023-04-09T13:35:08;4.82;;;2.28;;
26407;SDS011;14583;43.604;1.364;2023-04-09T13:37:35;12.23;;;2.28;;
26407;SDS011;14583;43.604;1.364;2023-04-09T13:40:03;3.42;;;1.27;;
26407;SDS011;14583;43.604;1.364;2023-04-09T13:42:29;2.78;;;1.60;;
26407;SDS011;14583;43.604;1.364;2023-04-09T13:44:55;3.55;;;1.48;;
26407;SDS011;14583;43.604;1.364;2023-04-09T13:47:21;2.08;;;1.17;;
26407;SDS011;14583;43.604;1.364;2023-04-09T13:49:48;1.75;;;1.20;;
26407;SDS011;14583;43.604;1.364;2023-04-09T13:52:15;3.88;;;1.27;;
26407;SDS011;14583;43.604;1.364;2023-04-09T13:54:41;4.00;;;1.30;;
26407;SDS011;14583;43.604;1.364;2023-04-09T13:57:07;3.25;;;1.40;;
26407;SDS011;14583;43.604;1.364;2023-04-09T13:59:34;2.72;;;1.35;;
26407;SDS011;14583;43.604;1.364;2023-04-09T14:02:00;2.30;;;1.35;;
26407;SDS011;14583;43.604;1.364;2023-04-09T14:04:25;5.63;;;1.55;;
26407;SDS011;14583;43.604;1.364;2023-04-09T14:06:51;3.97;;;2.60;;
26407;SDS011;14583;43.604;1.364;2023-04-09T14:09:17;3.67;;;1.05;;
26407;SDS011;14583;43.604;1.364;2023-04-09T14:11:42;2.75;;;1.20;;
26407;SDS011;14583;43.604;1.364;2023-04-09T14:14:08;2.28;;;1.40;;
26407;SDS011;14583;43.604;1.364;2023-04-09T14:16:34;1.90;;;1.13;;
26407;SDS011;14583;43.604;1.364;2023-04-09T14:19:00;5.93;;;1.45;;
26407;SDS011;14583;43.604;1.364;2023-04-09T14:21:26;1.38;;;1.25;;
26407;SDS011;14583;43.604;1.364;2023-04-09T14:23:53;2.05;;;1.45;;
26407;SDS011;14583;43.604;1.364;2023-04-09T14:26:18;2.47;;;1.65;;
26407;SDS011;14583;43.604;1.364;2023-04-09T14:28:47;3.08;;;1.50;;
26407;SDS011;14583;43.604;1.364;2023-04-09T14:31:13;2.10;;;1.38;;
26407;SDS011;14583;43.604;1.364;2023-04-09T14:33:39;3.60;;;1.27;;
26407;SDS011;14583;43.604;1.364;2023-04-09T14:36:05;2.03;;;1.35;;
26407;SDS011;14583;43.604;1.364;2023-04-09T14:38:34;1.55;;;1.08;;
26407;SDS011;14583;43.604;1.364;2023-04-09T14:41:01;1.70;;;1.17;;
26407;SDS011;14583;43.604;1.364;2023-04-09T14:43:26;2.30;;;1.30;;
26407;SDS011;14583;43.604;1.364;2023-04-09T14:45:52;4.70;;;1.20;;
26407;SDS011;14583;43.604;1.364;2023-04-09T14:48:18;2.65;;;1.20;;
26407;SDS011;14583;43.604;1.364;2023-04-09T14:50:44;5.07;;;1.20;;
26407;SDS011;14583;43.604;1.364;2023-04-09T14:53:10;1.45;;;1.20;;
26407;SDS011;14583;43.604;1.364;2023-04-09T14:55:36;2.28;;;1.35;;
26407;SDS011;14583;43.604;1.364;2023-04-09T14:58:02;3.05;;;1.48;;
26407;SDS011;14583;43.604;1.364;2023-04-09T15:00:31;1.50;;;1.15;;
26407;SDS011;14583;43.604;1.364;2023-04-09T15:02:57;2.13;;;1.40;;
26407;SDS011;14583;43.604;1.364;2023-04-09T15:05:23;4.30;;;1.45;;
26407;SDS011;14583;43.604;1.364;2023-04-09T15:07:48;1.95;;;1.13;;
26407;SDS011;14583;43.604;1.364;2023-04-09T15:10:14;2.47;;;1.20;;